KMHS/MHS METAR and TAF weather

Enter ICAO airport designator
Station Type Date Time Source
KMHS METAR 2021/09/28 16:56 UTC NOAA

KMHS 281656Z AUTO VRB04KT 10SM CLR 11/01 A3017 RMK AO2 SLP233 T01060011


Station Type Date Time Source
KMHS Decoded METAR 2021/09/28 16:56 UTC NOAA

MOUNT SHASTA, CA, United States (KMHS) 41-19N 122-19W 1078M
Sep 28, 2021 - 12:56 PM EDT / 2021.09.28 1656 UTC
Wind: Variable at 5 MPH (4 KT):0
Visibility: 10 mile(s):0
Sky conditions: clear
Temperature: 51.1 F (10.6 C)
Dew Point: 34.0 F (1.1 C)
Relative Humidity: 51%
Pressure (altimeter): 30.17 in. Hg (1021 hPa)
ob: KMHS 281656Z AUTO VRB04KT 10SM CLR 11/01 A3017 RMK AO2 SLP233 T01060011
cycle: 17

Station Type Date Time Source
KMHS TAF UTC NOAA

Error!

Example: see airport list